createdAt,value
2019-06-20T17:49:49.389Z,23.46
2019-06-20T17:52:21.438Z,23.21
2019-06-20T17:54:53.494Z,23.03
2019-06-20T17:57:25.800Z,22.87
2019-06-20T17:59:57.774Z,22.72
2019-06-20T18:02:29.322Z,22.70
2019-06-20T18:05:01.871Z,22.65
2019-06-20T18:07:33.710Z,22.62
2019-06-20T18:10:06.222Z,22.53
2019-06-20T18:12:38.229Z,22.51
2019-06-20T18:15:11.321Z,22.42
2019-06-20T18:17:56.443Z,22.36
2019-06-20T18:20:28.443Z,22.31
2019-06-20T18:22:59.915Z,22.24
2019-06-20T18:25:34.320Z,22.25
2019-06-20T18:28:06.492Z,22.22
2019-06-20T18:30:43.109Z,22.22
2019-06-20T18:33:15.163Z,22.22
2019-06-20T18:35:46.535Z,22.24
2019-06-20T18:38:20.499Z,22.22
2019-06-20T18:40:56.810Z,22.23
2019-06-20T18:43:28.320Z,22.23
2019-06-20T18:46:02.211Z,22.24
2019-06-20T18:48:34.233Z,22.21
2019-06-20T18:51:06.310Z,22.21
2019-06-20T18:53:38.645Z,22.22
2019-06-20T18:56:10.138Z,22.18
2019-06-20T18:58:42.151Z,22.14
2019-06-20T19:01:14.156Z,22.12
2019-06-20T19:03:45.933Z,22.10
2019-06-20T19:06:17.852Z,22.06
2019-06-20T19:08:55.188Z,22.07
2019-06-20T19:11:27.512Z,22.05
2019-06-20T19:14:00.073Z,22.00
2019-06-20T19:16:31.908Z,21.99
2019-06-20T19:19:11.955Z,21.98
2019-06-20T19:22:07.716Z,21.95
2019-06-20T19:32:37.873Z,21.92
2019-06-20T19:35:22.520Z,21.94
2019-06-20T19:37:57.850Z,21.91
2019-06-20T19:40:33.461Z,21.89
2019-06-20T19:43:16.482Z,21.86
2019-06-20T19:45:55.737Z,21.83
2019-06-20T19:48:41.333Z,21.83
2019-06-20T19:51:27.654Z,21.85
2019-06-20T19:54:06.553Z,21.80
2019-06-20T19:56:49.692Z,21.77
2019-06-20T19:59:25.868Z,21.75
2019-06-20T20:02:51.764Z,21.71
2019-06-20T20:05:26.147Z,21.73
2019-06-20T20:08:09.308Z,21.70
2019-06-20T20:10:46.203Z,21.60
2019-06-20T20:13:18.768Z,21.60
2019-06-20T20:16:07.091Z,21.60
2019-06-20T20:18:43.892Z,21.56
2019-06-20T20:21:24.639Z,21.52
2019-06-20T20:24:07.633Z,21.51
2019-06-20T20:26:41.043Z,21.42
2019-06-20T20:33:04.433Z,21.30
2019-06-20T20:35:38.831Z,21.16
2019-06-20T20:38:19.205Z,21.05
2019-06-20T20:40:51.330Z,21.02
2019-06-20T20:43:23.181Z,21.01
2019-06-20T20:45:59.853Z,21.02
2019-06-20T20:48:32.446Z,20.99
2019-06-20T20:51:08.848Z,20.99
2019-06-20T20:53:41.035Z,20.89
2019-06-20T20:56:18.944Z,20.79
2019-06-20T20:59:19.647Z,20.80
2019-06-20T21:02:02.757Z,20.78
2019-06-20T21:09:23.917Z,20.78
2019-06-20T21:11:57.828Z,20.75
2019-06-20T21:14:30.576Z,20.68
2019-06-20T21:17:03.173Z,20.64
2019-06-20T21:19:42.566Z,20.61
2019-06-20T21:22:14.887Z,20.58
2019-06-20T21:24:55.759Z,20.62
2019-06-20T21:27:31.942Z,20.62
2019-06-20T21:30:05.489Z,20.62
2019-06-20T21:32:37.666Z,20.67
2019-06-20T21:35:12.291Z,20.67
2019-06-20T21:37:44.175Z,20.63
2019-06-20T21:40:19.692Z,20.69
2019-06-20T21:42:57.415Z,20.66
2019-06-20T21:45:29.378Z,20.63
2019-06-20T21:48:01.459Z,20.62
2019-06-20T21:50:33.668Z,20.60
2019-06-20T21:53:06.077Z,20.53
2019-06-20T21:55:42.752Z,20.45
2019-06-20T21:58:15.405Z,20.45
2019-06-20T22:00:56.198Z,20.45
2019-06-20T22:03:30.172Z,20.46
2019-06-20T22:06:05.116Z,20.46
2019-06-20T22:08:40.521Z,20.46
2019-06-20T22:11:12.913Z,20.49
2019-06-20T22:13:47.272Z,20.42
2019-06-20T22:16:20.160Z,20.46
2019-06-20T22:18:51.822Z,20.48
2019-06-20T22:21:39.627Z,20.53
2019-06-20T22:24:34.668Z,20.54
2019-06-20T22:27:22.199Z,20.56
2019-06-20T22:30:07.254Z,20.48
2019-06-20T22:32:44.859Z,20.46
2019-06-20T22:35:25.615Z,20.36
2019-06-20T22:38:18.406Z,20.33
2019-06-20T22:40:54.087Z,20.30
2019-06-20T22:43:58.627Z,20.34
2019-06-20T22:46:47.444Z,20.39
2019-06-20T22:49:18.768Z,20.40
2019-06-20T22:52:13.234Z,20.40
2019-06-20T22:54:41.915Z,20.35
2019-06-20T23:00:36.413Z,20.36
2019-06-20T23:03:28.280Z,20.35
2019-06-20T23:06:03.182Z,20.37
2019-06-20T23:09:01.634Z,20.34
2019-06-20T23:12:39.973Z,20.28
2019-06-20T23:15:43.792Z,20.29
2019-06-20T23:26:38.337Z,20.35
2019-06-20T23:29:37.673Z,20.29
2019-06-20T23:32:11.956Z,20.06
2019-06-20T23:34:44.718Z,20.05
2019-06-20T23:37:19.177Z,20.12
2019-06-20T23:39:53.447Z,20.01
2019-06-20T23:42:26.186Z,19.81
2019-06-20T23:44:58.586Z,19.76
2019-06-20T23:47:32.751Z,19.74
2019-06-20T23:50:04.775Z,19.74
2019-06-20T23:52:38.649Z,19.80
2019-06-20T23:55:11.328Z,19.80
2019-06-20T23:57:43.373Z,19.78
